sensor_id;sensor_type;location;lat;lon;timestamp;temperature;humidity
35495;DHT22;21608;49.300;6.846;2022-07-01T00:02:42;24.00;48.50
35495;DHT22;21608;49.300;6.846;2022-07-01T00:05:44;23.90;48.50
35495;DHT22;21608;49.300;6.846;2022-07-01T00:08:46;24.00;48.60
35495;DHT22;21608;49.300;6.846;2022-07-01T00:11:49;24.00;48.50
35495;DHT22;21608;49.300;6.846;2022-07-01T00:14:51;24.00;48.50
35495;DHT22;21608;49.300;6.846;2022-07-01T00:17:53;24.00;48.50
35495;DHT22;21608;49.300;6.846;2022-07-01T00:20:55;23.90;48.50
35495;DHT22;21608;49.300;6.846;2022-07-01T00:23:57;23.90;48.40
35495;DHT22;21608;49.300;6.846;2022-07-01T00:26:59;24.00;48.40
35495;DHT22;21608;49.300;6.846;2022-07-01T00:30:01;23.90;48.30
35495;DHT22;21608;49.300;6.846;2022-07-01T00:33:03;23.90;48.40
35495;DHT22;21608;49.300;6.846;2022-07-01T00:36:05;23.90;48.40
35495;DHT22;21608;49.300;6.846;2022-07-01T00:39:07;23.90;48.40
35495;DHT22;21608;49.300;6.846;2022-07-01T00:42:09;24.00;48.90
35495;DHT22;21608;49.300;6.846;2022-07-01T00:45:11;23.90;48.40
35495;DHT22;21608;49.300;6.846;2022-07-01T00:48:14;23.90;48.40
35495;DHT22;21608;49.300;6.846;2022-07-01T00:51:18;23.90;48.30
35495;DHT22;21608;49.300;6.846;2022-07-01T00:54:21;23.90;48.20
35495;DHT22;21608;49.300;6.846;2022-07-01T00:57:23;23.90;48.30
35495;DHT22;21608;49.300;6.846;2022-07-01T01:00:31;23.90;48.30
35495;DHT22;21608;49.300;6.846;2022-07-01T01:03:33;23.90;48.40
35495;DHT22;21608;49.300;6.846;2022-07-01T01:06:35;23.90;48.30
35495;DHT22;21608;49.300;6.846;2022-07-01T01:09:37;23.90;48.40
35495;DHT22;21608;49.300;6.846;2022-07-01T01:12:38;23.80;48.30
35495;DHT22;21608;49.300;6.846;2022-07-01T01:15:41;23.90;48.30
35495;DHT22;21608;49.300;6.846;2022-07-01T01:18:43;23.90;48.30
35495;DHT22;21608;49.300;6.846;2022-07-01T01:21:45;23.90;48.30
35495;DHT22;21608;49.300;6.846;2022-07-01T01:24:47;23.80;48.20
35495;DHT22;21608;49.300;6.846;2022-07-01T01:27:49;23.80;48.30
35495;DHT22;21608;49.300;6.846;2022-07-01T01:30:50;23.80;48.30
35495;DHT22;21608;49.300;6.846;2022-07-01T01:33:52;23.80;48.30
35495;DHT22;21608;49.300;6.846;2022-07-01T01:36:54;23.80;48.30
35495;DHT22;21608;49.300;6.846;2022-07-01T01:39:56;23.80;48.30
35495;DHT22;21608;49.300;6.846;2022-07-01T01:42:59;23.80;48.30
35495;DHT22;21608;49.300;6.846;2022-07-01T01:46:02;23.90;48.30
35495;DHT22;21608;49.300;6.846;2022-07-01T01:49:05;23.80;48.20
35495;DHT22;21608;49.300;6.846;2022-07-01T01:52:07;23.80;48.30
35495;DHT22;21608;49.300;6.846;2022-07-01T01:55:10;23.80;48.30
35495;DHT22;21608;49.300;6.846;2022-07-01T01:58:12;23.80;48.20
35495;DHT22;21608;49.300;6.846;2022-07-01T02:01:14;23.80;48.30
35495;DHT22;21608;49.300;6.846;2022-07-01T02:04:16;23.90;48.30
35495;DHT22;21608;49.300;6.846;2022-07-01T02:07:18;23.80;48.20
35495;DHT22;21608;49.300;6.846;2022-07-01T02:10:19;23.80;48.20
35495;DHT22;21608;49.300;6.846;2022-07-01T02:13:22;23.80;48.30
35495;DHT22;21608;49.300;6.846;2022-07-01T02:16:24;23.80;48.90
35495;DHT22;21608;49.300;6.846;2022-07-01T02:19:25;23.80;48.30
35495;DHT22;21608;49.300;6.846;2022-07-01T02:22:27;23.80;48.30
35495;DHT22;21608;49.300;6.846;2022-07-01T02:25:30;23.80;48.20
35495;DHT22;21608;49.300;6.846;2022-07-01T02:28:32;23.80;48.20
35495;DHT22;21608;49.300;6.846;2022-07-01T02:31:34;23.80;48.20
35495;DHT22;21608;49.300;6.846;2022-07-01T02:34:36;23.80;48.20
35495;DHT22;21608;49.300;6.846;2022-07-01T02:37:39;23.80;48.30
35495;DHT22;21608;49.300;6.846;2022-07-01T02:40:41;23.80;48.20
35495;DHT22;21608;49.300;6.846;2022-07-01T02:43:43;23.80;48.20
35495;DHT22;21608;49.300;6.846;2022-07-01T02:46:44;23.80;48.20
35495;DHT22;21608;49.300;6.846;2022-07-01T02:49:46;23.80;48.20
35495;DHT22;21608;49.300;6.846;2022-07-01T02:52:49;23.80;48.10
35495;DHT22;21608;49.300;6.846;2022-07-01T02:55:50;23.80;48.10
35495;DHT22;21608;49.300;6.846;2022-07-01T02:58:53;23.80;48.10
35495;DHT22;21608;49.300;6.846;2022-07-01T03:01:55;23.80;48.00
35495;DHT22;21608;49.300;6.846;2022-07-01T03:04:57;23.80;48.00
35495;DHT22;21608;49.300;6.846;2022-07-01T03:07:59;23.80;48.00
35495;DHT22;21608;49.300;6.846;2022-07-01T03:11:01;23.80;48.00
35495;DHT22;21608;49.300;6.846;2022-07-01T03:14:03;23.80;47.90
35495;DHT22;21608;49.300;6.846;2022-07-01T03:17:04;23.80;47.90
35495;DHT22;21608;49.300;6.846;2022-07-01T03:20:09;23.80;47.90
35495;DHT22;21608;49.300;6.846;2022-07-01T03:23:11;23.80;47.90
35495;DHT22;21608;49.300;6.846;2022-07-01T03:26:13;23.70;47.80
35495;DHT22;21608;49.300;6.846;2022-07-01T03:29:16;23.70;47.80
35495;DHT22;21608;49.300;6.846;2022-07-01T03:32:18;23.70;47.80
35495;DHT22;21608;49.300;6.846;2022-07-01T03:35:20;23.70;47.70
35495;DHT22;21608;49.300;6.846;2022-07-01T03:38:37;23.80;47.80
35495;DHT22;21608;49.300;6.846;2022-07-01T03:41:39;23.80;47.70
35495;DHT22;21608;49.300;6.846;2022-07-01T03:44:41;23.70;47.60
35495;DHT22;21608;49.300;6.846;2022-07-01T03:47:50;23.70;47.60
35495;DHT22;21608;49.300;6.846;2022-07-01T03:50:52;23.80;47.70
35495;DHT22;21608;49.300;6.846;2022-07-01T03:53:54;23.70;47.50
35495;DHT22;21608;49.300;6.846;2022-07-01T03:57:14;23.70;47.60
35495;DHT22;21608;49.300;6.846;2022-07-01T04:00:16;23.70;47.60
35495;DHT22;21608;49.300;6.846;2022-07-01T04:03:21;23.70;47.60
35495;DHT22;21608;49.300;6.846;2022-07-01T04:06:23;23.80;47.60
35495;DHT22;21608;49.300;6.846;2022-07-01T04:09:25;23.70;47.50
35495;DHT22;21608;49.300;6.846;2022-07-01T04:12:28;23.70;47.50
35495;DHT22;21608;49.300;6.846;2022-07-01T04:15:30;23.70;47.40
35495;DHT22;21608;49.300;6.846;2022-07-01T04:18:32;23.70;47.40
35495;DHT22;21608;49.300;6.846;2022-07-01T04:21:35;23.70;47.50
35495;DHT22;21608;49.300;6.846;2022-07-01T04:24:56;23.70;47.50
35495;DHT22;21608;49.300;6.846;2022-07-01T04:27:57;23.70;47.60
35495;DHT22;21608;49.300;6.846;2022-07-01T04:31:00;23.70;47.60
35495;DHT22;21608;49.300;6.846;2022-07-01T04:34:02;23.70;47.60
35495;DHT22;21608;49.300;6.846;2022-07-01T04:37:04;23.70;47.60
35495;DHT22;21608;49.300;6.846;2022-07-01T04:40:07;23.80;47.60
35495;DHT22;21608;49.300;6.846;2022-07-01T04:43:08;23.70;47.70
35495;DHT22;21608;49.300;6.846;2022-07-01T04:46:10;23.70;47.80
35495;DHT22;21608;49.300;6.846;2022-07-01T04:49:12;23.70;47.50
35495;DHT22;21608;49.300;6.846;2022-07-01T04:52:15;23.70;47.00
35495;DHT22;21608;49.300;6.846;2022-07-01T04:55:17;23.60;46.80
35495;DHT22;21608;49.300;6.846;2022-07-01T04:58:18;23.60;47.00
35495;DHT22;21608;49.300;6.846;2022-07-01T05:01:20;23.60;47.20
35495;DHT22;21608;49.300;6.846;2022-07-01T05:04:22;23.70;47.20
35495;DHT22;21608;49.300;6.846;2022-07-01T05:07:25;23.70;47.10
35495;DHT22;21608;49.300;6.846;2022-07-01T05:10:30;23.60;46.40
35495;DHT22;21608;49.300;6.846;2022-07-01T05:13:32;23.50;46.00
35495;DHT22;21608;49.300;6.846;2022-07-01T05:16:37;23.40;46.00
35495;DHT22;21608;49.300;6.846;2022-07-01T05:19:39;23.30;46.00
35495;DHT22;21608;49.300;6.846;2022-07-01T05:23:00;23.30;46.10
35495;DHT22;21608;49.300;6.846;2022-07-01T05:26:02;23.30;46.30
35495;DHT22;21608;49.300;6.846;2022-07-01T05:29:04;23.30;46.30
35495;DHT22;21608;49.300;6.846;2022-07-01T05:32:06;23.40;46.40
35495;DHT22;21608;49.300;6.846;2022-07-01T05:35:08;23.50;46.30
35495;DHT22;21608;49.300;6.846;2022-07-01T05:38:10;23.50;46.40
35495;DHT22;21608;49.300;6.846;2022-07-01T05:41:12;23.50;46.50
35495;DHT22;21608;49.300;6.846;2022-07-01T05:44:14;23.50;46.60
35495;DHT22;21608;49.300;6.846;2022-07-01T05:47:15;23.50;46.70
35495;DHT22;21608;49.300;6.846;2022-07-01T05:50:17;23.50;46.70
35495;DHT22;21608;49.300;6.846;2022-07-01T05:53:19;23.50;46.80
35495;DHT22;21608;49.300;6.846;2022-07-01T05:56:22;23.50;46.80
35495;DHT22;21608;49.300;6.846;2022-07-01T05:59:23;23.50;46.50
35495;DHT22;21608;49.300;6.846;2022-07-01T06:02:25;23.40;46.30
35495;DHT22;21608;49.300;6.846;2022-07-01T06:05:28;23.40;46.40
35495;DHT22;21608;49.300;6.846;2022-07-01T06:08:32;23.30;46.50
35495;DHT22;21608;49.300;6.846;2022-07-01T06:11:35;23.30;46.60
35495;DHT22;21608;49.300;6.846;2022-07-01T06:14:37;23.30;46.70
35495;DHT22;21608;49.300;6.846;2022-07-01T06:17:41;23.20;46.80
35495;DHT22;21608;49.300;6.846;2022-07-01T06:20:43;23.30;46.80
35495;DHT22;21608;49.300;6.846;2022-07-01T06:23:44;23.30;47.10
35495;DHT22;21608;49.300;6.846;2022-07-01T06:26:47;23.30;47.00
35495;DHT22;21608;49.300;6.846;2022-07-01T06:29:50;23.40;47.60
35495;DHT22;21608;49.300;6.846;2022-07-01T06:32:52;23.50;47.10
35495;DHT22;21608;49.300;6.846;2022-07-01T06:35:54;23.50;47.00
35495;DHT22;21608;49.300;6.846;2022-07-01T06:38:56;23.50;47.10
35495;DHT22;21608;49.300;6.846;2022-07-01T06:41:57;23.50;47.10
35495;DHT22;21608;49.300;6.846;2022-07-01T06:45:00;23.50;47.20
35495;DHT22;21608;49.300;6.846;2022-07-01T06:48:02;23.50;47.40
35495;DHT22;21608;49.300;6.846;2022-07-01T06:51:04;23.50;48.00
35495;DHT22;21608;49.300;6.846;2022-07-01T06:54:07;23.50;47.40
35495;DHT22;21608;49.300;6.846;2022-07-01T06:57:09;23.60;47.50
35495;DHT22;21608;49.300;6.846;2022-07-01T07:00:11;23.60;47.40
35495;DHT22;21608;49.300;6.846;2022-07-01T07:03:13;23.60;47.50
35495;DHT22;21608;49.300;6.846;2022-07-01T07:06:16;23.70;47.50
35495;DHT22;21608;49.300;6.846;2022-07-01T07:09:17;23.70;47.80
35495;DHT22;21608;49.300;6.846;2022-07-01T07:12:19;23.80;48.00
35495;DHT22;21608;49.300;6.846;2022-07-01T07:15:21;23.70;48.00
35495;DHT22;21608;49.300;6.846;2022-07-01T07:18:26;23.70;48.40
35495;DHT22;21608;49.300;6.846;2022-07-01T07:21:28;23.80;48.70
35495;DHT22;21608;49.300;6.846;2022-07-01T07:24:30;23.80;49.20
35495;DHT22;21608;49.300;6.846;2022-07-01T07:27:32;23.80;49.30
35495;DHT22;21608;49.300;6.846;2022-07-01T07:30:35;23.80;49.30
35495;DHT22;21608;49.300;6.846;2022-07-01T07:33:37;23.80;49.50
35495;DHT22;21608;49.300;6.846;2022-07-01T07:36:39;23.80;49.40
35495;DHT22;21608;49.300;6.846;2022-07-01T07:39:41;23.90;52.70
35495;DHT22;21608;49.300;6.846;2022-07-01T07:42:42;23.90;50.40
35495;DHT22;21608;49.300;6.846;2022-07-01T07:45:44;23.90;50.30
35495;DHT22;21608;49.300;6.846;2022-07-01T07:48:46;23.80;49.50
35495;DHT22;21608;49.300;6.846;2022-07-01T07:51:49;23.80;49.70
35495;DHT22;21608;49.300;6.846;2022-07-01T07:54:51;23.80;49.60
35495;DHT22;21608;49.300;6.846;2022-07-01T07:57:53;24.00;50.00
35495;DHT22;21608;49.300;6.846;2022-07-01T08:00:55;24.10;49.50
35495;DHT22;21608;49.300;6.846;2022-07-01T08:03:57;24.20;49.40
35495;DHT22;21608;49.300;6.846;2022-07-01T08:07:00;24.20;49.40
35495;DHT22;21608;49.300;6.846;2022-07-01T08:10:02;24.20;49.20
35495;DHT22;21608;49.300;6.846;2022-07-01T08:13:04;24.20;49.10
35495;DHT22;21608;49.300;6.846;2022-07-01T08:16:07;24.20;49.10
35495;DHT22;21608;49.300;6.846;2022-07-01T08:19:10;24.20;49.10
35495;DHT22;21608;49.300;6.846;2022-07-01T08:22:12;24.20;49.00
35495;DHT22;21608;49.300;6.846;2022-07-01T08:25:13;24.20;49.00
35495;DHT22;21608;49.300;6.846;2022-07-01T08:28:16;24.20;49.00
35495;DHT22;21608;49.300;6.846;2022-07-01T08:31:18;24.10;49.00
35495;DHT22;21608;49.300;6.846;2022-07-01T08:34:20;24.10;49.00
35495;DHT22;21608;49.300;6.846;2022-07-01T08:37:22;24.20;49.00
35495;DHT22;21608;49.300;6.846;2022-07-01T08:40:25;24.20;48.90
35495;DHT22;21608;49.300;6.846;2022-07-01T08:43:28;24.30;48.90
35495;DHT22;21608;49.300;6.846;2022-07-01T08:46:30;24.40;48.90
35495;DHT22;21608;49.300;6.846;2022-07-01T08:49:32;24.40;48.90
35495;DHT22;21608;49.300;6.846;2022-07-01T08:52:34;24.40;48.90
35495;DHT22;21608;49.300;6.846;2022-07-01T08:55:37;24.40;48.90
35495;DHT22;21608;49.300;6.846;2022-07-01T08:58:57;24.50;48.90
35495;DHT22;21608;49.300;6.846;2022-07-01T09:02:02;24.50;48.90
35495;DHT22;21608;49.300;6.846;2022-07-01T09:05:05;24.50;48.80
35495;DHT22;21608;49.300;6.846;2022-07-01T09:08:07;24.50;48.90
35495;DHT22;21608;49.300;6.846;2022-07-01T09:11:17;24.50;48.90
35495;DHT22;21608;49.300;6.846;2022-07-01T09:14:22;24.50;48.90
35495;DHT22;21608;49.300;6.846;2022-07-01T09:17:25;24.50;49.50
35495;DHT22;21608;49.300;6.846;2022-07-01T09:20:33;24.50;49.00
35495;DHT22;21608;49.300;6.846;2022-07-01T09:23:35;24.50;49.10
35495;DHT22;21608;49.300;6.846;2022-07-01T09:26:37;24.50;49.00
35495;DHT22;21608;49.300;6.846;2022-07-01T09:29:43;24.50;49.10
35495;DHT22;21608;49.300;6.846;2022-07-01T09:32:45;24.60;48.80
35495;DHT22;21608;49.300;6.846;2022-07-01T09:35:47;24.60;49.30
35495;DHT22;21608;49.300;6.846;2022-07-01T09:38:53;24.60;48.70
35495;DHT22;21608;49.300;6.846;2022-07-01T09:42:17;24.70;48.60
35495;DHT22;21608;49.300;6.846;2022-07-01T09:45:20;24.60;48.60
35495;DHT22;21608;49.300;6.846;2022-07-01T09:48:24;24.60;48.60
35495;DHT22;21608;49.300;6.846;2022-07-01T09:51:27;24.60;48.60
35495;DHT22;21608;49.300;6.846;2022-07-01T09:54:30;24.60;48.60
35495;DHT22;21608;49.300;6.846;2022-07-01T09:57:32;24.70;48.60
35495;DHT22;21608;49.300;6.846;2022-07-01T10:00:36;24.70;48.60
35495;DHT22;21608;49.300;6.846;2022-07-01T10:03:39;24.70;48.60
35495;DHT22;21608;49.300;6.846;2022-07-01T10:07:07;24.70;48.60
35495;DHT22;21608;49.300;6.846;2022-07-01T10:13:31;24.70;48.70
35495;DHT22;21608;49.300;6.846;2022-07-01T10:16:35;24.70;48.70
35495;DHT22;21608;49.300;6.846;2022-07-01T10:19:40;24.70;48.80
35495;DHT22;21608;49.300;6.846;2022-07-01T10:22:44;24.70;48.80
35495;DHT22;21608;49.300;6.846;2022-07-01T10:25:50;24.70;48.80
35495;DHT22;21608;49.300;6.846;2022-07-01T10:28:53;24.70;48.90
35495;DHT22;21608;49.300;6.846;2022-07-01T10:32:00;24.60;48.60
35495;DHT22;21608;49.300;6.846;2022-07-01T10:35:06;24.60;46.90
35495;DHT22;21608;49.300;6.846;2022-07-01T10:38:11;24.50;46.40
35495;DHT22;21608;49.300;6.846;2022-07-01T10:41:24;24.50;47.00
35495;DHT22;21608;49.300;6.846;2022-07-01T10:44:27;24.60;47.70
35495;DHT22;21608;49.300;6.846;2022-07-01T10:47:29;24.60;47.50
35495;DHT22;21608;49.300;6.846;2022-07-01T10:50:37;24.60;47.30
35495;DHT22;21608;49.300;6.846;2022-07-01T10:53:47;24.60;47.20
35495;DHT22;21608;49.300;6.846;2022-07-01T10:56:56;24.60;47.10
35495;DHT22;21608;49.300;6.846;2022-07-01T11:03:23;24.70;47.30
35495;DHT22;21608;49.300;6.846;2022-07-01T11:06:25;24.70;47.30
35495;DHT22;21608;49.300;6.846;2022-07-01T11:09:27;24.70;47.20
35495;DHT22;21608;49.300;6.846;2022-07-01T11:12:30;24.70;47.90
35495;DHT22;21608;49.300;6.846;2022-07-01T11:15:32;24.70;47.30
35495;DHT22;21608;49.300;6.846;2022-07-01T11:18:34;24.70;47.30
35495;DHT22;21608;49.300;6.846;2022-07-01T11:21:36;24.70;47.40
35495;DHT22;21608;49.300;6.846;2022-07-01T11:24:38;24.70;47.40
35495;DHT22;21608;49.300;6.846;2022-07-01T11:27:45;24.70;47.50
35495;DHT22;21608;49.300;6.846;2022-07-01T11:30:48;24.70;47.50
35495;DHT22;21608;49.300;6.846;2022-07-01T11:33:49;24.80;47.60
35495;DHT22;21608;49.300;6.846;2022-07-01T11:36:51;24.70;47.60
35495;DHT22;21608;49.300;6.846;2022-07-01T11:40:14;24.70;47.60
35495;DHT22;21608;49.300;6.846;2022-07-01T11:43:25;24.70;47.70
35495;DHT22;21608;49.300;6.846;2022-07-01T11:46:27;24.70;47.70
35495;DHT22;21608;49.300;6.846;2022-07-01T11:49:30;24.70;47.80
35495;DHT22;21608;49.300;6.846;2022-07-01T11:52:31;24.70;47.70
35495;DHT22;21608;49.300;6.846;2022-07-01T11:55:34;24.70;47.80
35495;DHT22;21608;49.300;6.846;2022-07-01T11:58:51;24.70;47.80
35495;DHT22;21608;49.300;6.846;2022-07-01T12:01:54;24.80;48.40
35495;DHT22;21608;49.300;6.846;2022-07-01T12:04:56;24.80;47.80
35495;DHT22;21608;49.300;6.846;2022-07-01T12:08:01;24.80;47.90
35495;DHT22;21608;49.300;6.846;2022-07-01T12:11:03;24.80;47.90
35495;DHT22;21608;49.300;6.846;2022-07-01T12:14:05;24.70;47.80
35495;DHT22;21608;49.300;6.846;2022-07-01T12:17:08;24.70;47.90
35495;DHT22;21608;49.300;6.846;2022-07-01T12:20:10;24.70;47.90
35495;DHT22;21608;49.300;6.846;2022-07-01T12:23:15;24.70;47.90
35495;DHT22;21608;49.300;6.846;2022-07-01T12:26:17;24.70;47.90
35495;DHT22;21608;49.300;6.846;2022-07-01T12:29:24;24.70;47.90
35495;DHT22;21608;49.300;6.846;2022-07-01T12:32:28;24.70;47.90
35495;DHT22;21608;49.300;6.846;2022-07-01T12:35:30;24.70;47.90
35495;DHT22;21608;49.300;6.846;2022-07-01T12:38:39;24.70;48.00
35495;DHT22;21608;49.300;6.846;2022-07-01T12:41:49;24.70;48.00
35495;DHT22;21608;49.300;6.846;2022-07-01T12:44:54;24.70;48.00
35495;DHT22;21608;49.300;6.846;2022-07-01T12:47:57;24.70;47.90
35495;DHT22;21608;49.300;6.846;2022-07-01T12:50:59;24.70;47.90
35495;DHT22;21608;49.300;6.846;2022-07-01T12:54:01;24.70;48.50
35495;DHT22;21608;49.300;6.846;2022-07-01T12:57:03;24.70;47.90
35495;DHT22;21608;49.300;6.846;2022-07-01T13:00:05;24.70;47.90
35495;DHT22;21608;49.300;6.846;2022-07-01T13:03:08;24.70;47.90
35495;DHT22;21608;49.300;6.846;2022-07-01T13:06:10;24.70;47.90
35495;DHT22;21608;49.300;6.846;2022-07-01T13:09:12;24.70;47.90
35495;DHT22;21608;49.300;6.846;2022-07-01T13:12:14;24.70;47.90
35495;DHT22;21608;49.300;6.846;2022-07-01T13:15:17;24.70;47.80
35495;DHT22;21608;49.300;6.846;2022-07-01T13:18:19;24.70;47.90
35495;DHT22;21608;49.300;6.846;2022-07-01T13:21:21;24.70;47.80
35495;DHT22;21608;49.300;6.846;2022-07-01T13:24:22;24.70;47.80
35495;DHT22;21608;49.300;6.846;2022-07-01T13:27:34;24.70;47.80
35495;DHT22;21608;49.300;6.846;2022-07-01T13:30:36;24.70;47.80
35495;DHT22;21608;49.300;6.846;2022-07-01T13:33:39;24.70;48.40
35495;DHT22;21608;49.300;6.846;2022-07-01T13:36:41;24.70;47.80
35495;DHT22;21608;49.300;6.846;2022-07-01T13:39:43;24.70;47.80
35495;DHT22;21608;49.300;6.846;2022-07-01T13:42:45;24.70;47.80
35495;DHT22;21608;49.300;6.846;2022-07-01T13:45:47;24.70;47.80
35495;DHT22;21608;49.300;6.846;2022-07-01T13:48:49;24.70;47.80
35495;DHT22;21608;49.300;6.846;2022-07-01T13:51:51;24.70;47.70
35495;DHT22;21608;49.300;6.846;2022-07-01T13:54:53;24.70;48.00
35495;DHT22;21608;49.300;6.846;2022-07-01T13:57:55;24.70;47.70
35495;DHT22;21608;49.300;6.846;2022-07-01T14:00:56;24.70;47.70
35495;DHT22;21608;49.300;6.846;2022-07-01T14:03:58;24.70;47.70
35495;DHT22;21608;49.300;6.846;2022-07-01T14:07:24;24.70;47.70
35495;DHT22;21608;49.300;6.846;2022-07-01T14:10:26;24.70;47.70
35495;DHT22;21608;49.300;6.846;2022-07-01T14:13:29;24.70;47.60
35495;DHT22;21608;49.300;6.846;2022-07-01T14:16:31;24.70;47.70
35495;DHT22;21608;49.300;6.846;2022-07-01T14:19:33;24.70;47.70
35495;DHT22;21608;49.300;6.846;2022-07-01T14:22:35;24.70;47.60
35495;DHT22;21608;49.300;6.846;2022-07-01T14:25:37;24.70;47.70
35495;DHT22;21608;49.300;6.846;2022-07-01T14:28:41;24.70;47.60
35495;DHT22;21608;49.300;6.846;2022-07-01T14:31:42;24.70;48.10
35495;DHT22;21608;49.300;6.846;2022-07-01T14:34:44;24.60;47.50
35495;DHT22;21608;49.300;6.846;2022-07-01T14:37:46;24.70;47.60
35495;DHT22;21608;49.300;6.846;2022-07-01T14:40:48;24.60;47.40
35495;DHT22;21608;49.300;6.846;2022-07-01T14:43:50;24.60;47.50
35495;DHT22;21608;49.300;6.846;2022-07-01T14:46:52;24.70;47.50
35495;DHT22;21608;49.300;6.846;2022-07-01T14:49:55;24.60;47.40
35495;DHT22;21608;49.300;6.846;2022-07-01T14:52:57;24.60;47.30
35495;DHT22;21608;49.300;6.846;2022-07-01T14:55:59;24.60;47.40
35495;DHT22;21608;49.300;6.846;2022-07-01T14:59:01;24.60;47.40
35495;DHT22;21608;49.300;6.846;2022-07-01T15:02:08;24.60;47.40
35495;DHT22;21608;49.300;6.846;2022-07-01T15:05:11;24.60;47.40
35495;DHT22;21608;49.300;6.846;2022-07-01T15:08:12;24.60;47.80
35495;DHT22;21608;49.300;6.846;2022-07-01T15:11:15;24.60;47.00
35495;DHT22;21608;49.300;6.846;2022-07-01T15:14:18;24.60;45.80
35495;DHT22;21608;49.300;6.846;2022-07-01T15:17:19;24.50;44.80
35495;DHT22;21608;49.300;6.846;2022-07-01T15:20:21;24.50;45.60
35495;DHT22;21608;49.300;6.846;2022-07-01T15:23:23;24.50;45.40
35495;DHT22;21608;49.300;6.846;2022-07-01T15:26:25;24.50;45.90
35495;DHT22;21608;49.300;6.846;2022-07-01T15:29:27;24.50;45.20
35495;DHT22;21608;49.300;6.846;2022-07-01T15:32:30;24.50;45.00
35495;DHT22;21608;49.300;6.846;2022-07-01T15:35:32;24.50;44.80
35495;DHT22;21608;49.300;6.846;2022-07-01T15:38:34;24.50;43.80
35495;DHT22;21608;49.300;6.846;2022-07-01T15:41:38;24.40;42.50
35495;DHT22;21608;49.300;6.846;2022-07-01T15:44:40;24.40;42.30
35495;DHT22;21608;49.300;6.846;2022-07-01T15:47:42;24.40;41.40
35495;DHT22;21608;49.300;6.846;2022-07-01T15:51:03;24.40;41.10
35495;DHT22;21608;49.300;6.846;2022-07-01T15:54:05;24.40;41.80
35495;DHT22;21608;49.300;6.846;2022-07-01T15:57:07;24.40;41.40
35495;DHT22;21608;49.300;6.846;2022-07-01T16:00:09;24.40;41.80
35495;DHT22;21608;49.300;6.846;2022-07-01T16:03:11;24.40;41.30
35495;DHT22;21608;49.300;6.846;2022-07-01T16:06:14;24.40;41.40
35495;DHT22;21608;49.300;6.846;2022-07-01T16:09:17;24.40;41.00
35495;DHT22;21608;49.300;6.846;2022-07-01T16:12:20;24.40;41.00
35495;DHT22;21608;49.300;6.846;2022-07-01T16:15:25;24.40;40.70
35495;DHT22;21608;49.300;6.846;2022-07-01T16:18:29;24.40;40.50
35495;DHT22;21608;49.300;6.846;2022-07-01T16:21:34;24.30;39.50
35495;DHT22;21608;49.300;6.846;2022-07-01T16:24:40;24.30;39.50
35495;DHT22;21608;49.300;6.846;2022-07-01T16:27:44;24.30;39.90
35495;DHT22;21608;49.300;6.846;2022-07-01T16:30:51;24.30;40.00
35495;DHT22;21608;49.300;6.846;2022-07-01T16:33:53;24.30;40.50
35495;DHT22;21608;49.300;6.846;2022-07-01T16:36:55;24.40;40.90
35495;DHT22;21608;49.300;6.846;2022-07-01T16:40:12;24.40;40.70
35495;DHT22;21608;49.300;6.846;2022-07-01T16:43:17;24.40;40.90
35495;DHT22;21608;49.300;6.846;2022-07-01T16:46:21;24.40;40.40
35495;DHT22;21608;49.300;6.846;2022-07-01T16:49:30;24.40;40.50
35495;DHT22;21608;49.300;6.846;2022-07-01T16:52:40;24.40;40.50
35495;DHT22;21608;49.300;6.846;2022-07-01T16:55:46;24.40;40.60
35495;DHT22;21608;49.300;6.846;2022-07-01T16:59:01;24.40;40.70
35495;DHT22;21608;49.300;6.846;2022-07-01T17:02:04;24.40;40.40
35495;DHT22;21608;49.300;6.846;2022-07-01T17:05:06;24.40;41.20
35495;DHT22;21608;49.300;6.846;2022-07-01T17:08:09;24.40;40.80
35495;DHT22;21608;49.300;6.846;2022-07-01T17:11:11;24.50;41.40
35495;DHT22;21608;49.300;6.846;2022-07-01T17:14:14;24.50;41.70
35495;DHT22;21608;49.300;6.846;2022-07-01T17:17:24;24.50;42.10
35495;DHT22;21608;49.300;6.846;2022-07-01T17:20:26;24.50;41.90
35495;DHT22;21608;49.300;6.846;2022-07-01T17:23:35;24.50;41.90
35495;DHT22;21608;49.300;6.846;2022-07-01T17:30:05;24.50;41.90
35495;DHT22;21608;49.300;6.846;2022-07-01T17:33:07;24.50;42.10
35495;DHT22;21608;49.300;6.846;2022-07-01T17:36:26;24.50;42.40
35495;DHT22;21608;49.300;6.846;2022-07-01T17:39:35;24.50;42.70
35495;DHT22;21608;49.300;6.846;2022-07-01T17:42:40;24.50;42.90
35495;DHT22;21608;49.300;6.846;2022-07-01T17:45:46;24.50;43.00
35495;DHT22;21608;49.300;6.846;2022-07-01T17:48:48;24.50;43.00
35495;DHT22;21608;49.300;6.846;2022-07-01T17:51:51;24.50;43.10
35495;DHT22;21608;49.300;6.846;2022-07-01T17:54:53;24.50;43.20
35495;DHT22;21608;49.300;6.846;2022-07-01T17:57:59;24.50;42.90
35495;DHT22;21608;49.300;6.846;2022-07-01T18:01:03;24.50;43.10
35495;DHT22;21608;49.300;6.846;2022-07-01T18:04:07;24.50;43.00
35495;DHT22;21608;49.300;6.846;2022-07-01T18:07:09;24.50;43.20
35495;DHT22;21608;49.300;6.846;2022-07-01T18:10:17;24.50;43.30
35495;DHT22;21608;49.300;6.846;2022-07-01T18:13:42;24.50;43.50
35495;DHT22;21608;49.300;6.846;2022-07-01T18:17:09;24.50;43.70
35495;DHT22;21608;49.300;6.846;2022-07-01T18:23:47;24.50;44.00
35495;DHT22;21608;49.300;6.846;2022-07-01T18:26:50;24.40;44.10
35495;DHT22;21608;49.300;6.846;2022-07-01T18:29:54;24.40;44.00
35495;DHT22;21608;49.300;6.846;2022-07-01T18:33:02;24.50;44.30
35495;DHT22;21608;49.300;6.846;2022-07-01T18:36:08;24.50;44.30
35495;DHT22;21608;49.300;6.846;2022-07-01T18:39:11;24.50;44.40
35495;DHT22;21608;49.300;6.846;2022-07-01T18:42:13;24.50;44.20
35495;DHT22;21608;49.300;6.846;2022-07-01T18:45:16;24.40;44.40
35495;DHT22;21608;49.300;6.846;2022-07-01T18:48:18;24.50;44.30
35495;DHT22;21608;49.300;6.846;2022-07-01T18:51:19;24.50;45.10
35495;DHT22;21608;49.300;6.846;2022-07-01T18:54:21;24.40;44.70
35495;DHT22;21608;49.300;6.846;2022-07-01T18:57:24;24.50;44.60
35495;DHT22;21608;49.300;6.846;2022-07-01T19:00:26;24.40;44.60
35495;DHT22;21608;49.300;6.846;2022-07-01T19:03:30;24.40;44.80
35495;DHT22;21608;49.300;6.846;2022-07-01T19:06:35;24.50;44.90
35495;DHT22;21608;49.300;6.846;2022-07-01T19:09:40;24.40;44.90
35495;DHT22;21608;49.300;6.846;2022-07-01T19:12:42;24.40;45.10
35495;DHT22;21608;49.300;6.846;2022-07-01T19:15:44;24.40;45.10
35495;DHT22;21608;49.300;6.846;2022-07-01T19:18:46;24.40;45.10
35495;DHT22;21608;49.300;6.846;2022-07-01T19:21:48;24.40;45.10
35495;DHT22;21608;49.300;6.846;2022-07-01T19:24:50;24.40;45.10
35495;DHT22;21608;49.300;6.846;2022-07-01T19:27:52;24.40;45.20
35495;DHT22;21608;49.300;6.846;2022-07-01T19:30:55;24.40;45.10
35495;DHT22;21608;49.300;6.846;2022-07-01T19:33:57;24.40;45.20